Time;durP1;ratioP1;P1;durP2;ratioP2;P2;SDS_P1;SDS_P2;PMS_P1;PMS_P2;Temp;Humidity;BMP_temperature;BMP_pressure;BME280_temperature;BME280_humidity;BME280_pressure;Samples;Min_cycle;Max_cycle;Signal;HPM_P1;HPM_P2
2022/04/20 00:00:49;;;;;;;0.93;0.70;;;10.80;99.90;;;;;;5102051;28;20453;-57
2022/04/20 00:03:16;;;;;;;1.20;0.60;;;10.70;99.90;;;;;;5102278;28;20476;-56
2022/04/20 00:05:44;;;;;;;1.20;0.73;;;10.60;99.90;;;;;;5102231;28;20660;-57
2022/04/20 00:08:11;;;;;;;1.40;0.70;;;10.70;99.90;;;;;;5102249;28;20509;-57
2022/04/20 00:10:38;;;;;;;1.50;0.80;;;10.60;99.90;;;;;;5101206;28;20492;-57
2022/04/20 00:13:05;;;;;;;0.97;0.70;;;10.50;99.90;;;;;;5098559;28;20451;-57
2022/04/20 00:15:32;;;;;;;1.50;0.80;;;10.60;99.90;;;;;;5099101;28;20485;-57
2022/04/20 00:17:59;;;;;;;1.13;0.70;;;10.60;99.90;;;;;;5098637;28;20859;-57
2022/04/20 00:20:26;;;;;;;2.13;0.90;;;10.60;99.90;;;;;;5099049;28;20481;-57
2022/04/20 00:22:54;;;;;;;1.47;1.03;;;10.60;99.90;;;;;;5098696;28;20485;-56
2022/04/20 00:25:21;;;;;;;1.87;0.77;;;10.50;99.90;;;;;;5097387;28;20576;-57
2022/04/20 00:27:48;;;;;;;1.23;0.70;;;10.50;99.90;;;;;;5097186;28;20536;-55
2022/04/20 00:30:15;;;;;;;3.03;0.80;;;10.40;99.90;;;;;;5096959;28;20953;-57
2022/04/20 00:32:42;;;;;;;1.30;0.90;;;10.30;99.90;;;;;;5097665;28;20480;-56
2022/04/20 00:35:10;;;;;;;1.67;0.87;;;10.20;99.90;;;;;;5098724;28;20537;-58
2022/04/20 00:37:40;;;;;;;1.40;0.87;;;10.10;99.90;;;;;;5098165;28;20449;-57
2022/04/20 00:40:10;;;;;;;1.70;0.93;;;10.00;99.90;;;;;;5098406;28;20441;-55
2022/04/20 00:42:40;;;;;;;1.50;1.00;;;10.00;99.90;;;;;;5097897;28;20478;-56
2022/04/20 00:45:09;;;;;;;1.00;0.73;;;10.00;99.90;;;;;;5097041;28;20448;-56
2022/04/20 00:47:37;;;;;;;1.47;0.90;;;10.10;99.90;;;;;;5098274;28;20801;-57
2022/04/20 00:50:06;;;;;;;1.97;0.80;;;10.10;99.90;;;;;;5097952;28;20921;-57
2022/04/20 00:52:33;;;;;;;1.43;0.80;;;10.10;99.90;;;;;;5096269;28;20446;-55
2022/04/20 00:55:00;;;;;;;1.07;0.80;;;10.00;99.90;;;;;;5096853;28;20536;-56
2022/04/20 00:57:28;;;;;;;1.20;0.80;;;9.90;99.90;;;;;;5095460;28;20904;-55
2022/04/20 00:59:57;;;;;;;1.67;0.90;;;9.70;99.90;;;;;;5095625;28;20509;-54
2022/04/20 01:02:24;;;;;;;1.27;0.90;;;9.90;99.90;;;;;;5097476;28;20532;-57
2022/04/20 01:04:51;;;;;;;2.00;0.90;;;9.90;99.90;;;;;;5097346;28;20446;-56
2022/04/20 01:07:18;;;;;;;1.40;0.80;;;9.80;99.90;;;;;;5097738;28;20503;-56
2022/04/20 01:09:46;;;;;;;1.43;0.90;;;9.80;99.90;;;;;;5097719;28;20529;-53
2022/04/20 01:12:14;;;;;;;1.30;0.90;;;9.70;99.90;;;;;;5098017;28;20545;-56
2022/04/20 01:14:43;;;;;;;1.63;0.80;;;9.60;99.90;;;;;;5097869;28;20753;-56
2022/04/20 01:17:10;;;;;;;1.27;0.80;;;9.60;1.00;;;;;;5097660;28;20572;-57
2022/04/20 01:19:38;;;;;;;1.00;0.80;;;9.80;1.00;;;;;;5096365;28;20559;-57
2022/04/20 01:22:08;;;;;;;1.10;0.70;;;9.80;1.00;;;;;;5096996;28;20453;-56
2022/04/20 01:24:36;;;;;;;1.33;0.80;;;9.80;1.00;;;;;;5097075;28;20552;-56
2022/04/20 01:27:04;;;;;;;1.00;0.80;;;9.70;99.90;;;;;;5097084;28;20450;-56
2022/04/20 01:29:31;;;;;;;1.00;0.73;;;9.70;1.00;;;;;;5097000;28;20904;-54
2022/04/20 01:31:58;;;;;;;1.60;0.90;;;9.80;1.00;;;;;;5097496;28;20939;-57
2022/04/20 01:34:25;;;;;;;1.50;0.80;;;9.80;1.00;;;;;;5096416;28;20476;-54
2022/04/20 01:36:52;;;;;;;1.30;0.90;;;9.80;1.00;;;;;;5096859;28;20454;-55
2022/04/20 01:39:20;;;;;;;1.50;0.90;;;9.80;1.00;;;;;;5095117;28;20567;-56
2022/04/20 01:41:47;;;;;;;2.10;0.90;;;9.60;1.00;;;;;;5095555;28;20881;-56
2022/04/20 01:44:14;;;;;;;0.90;0.70;;;9.60;1.00;;;;;;5095653;28;20532;-59
2022/04/20 01:46:41;;;;;;;2.43;0.83;;;9.70;1.00;;;;;;5094579;28;20457;-55
2022/04/20 01:49:08;;;;;;;1.20;0.80;;;9.60;1.00;;;;;;5094254;28;20441;-54
2022/04/20 01:51:54;;;;;;;1.07;0.77;;;9.60;1.00;;;;;;5095302;28;20450;-54
2022/04/20 01:54:22;;;;;;;1.23;0.70;;;9.70;1.00;;;;;;5096970;28;20453;-56
2022/04/20 01:56:51;;;;;;;1.83;0.87;;;9.60;1.00;;;;;;5096761;28;20457;-53
2022/04/20 01:59:18;;;;;;;1.53;0.80;;;9.60;1.00;;;;;;5096986;28;20477;-56
2022/04/20 02:04:29;;;;;;;2.50;1.03;;;9.40;1.00;;;;;;5096339;28;20425;-56
2022/04/20 02:06:57;;;;;;;1.23;0.80;;;9.50;1.00;;;;;;5096863;28;20552;-55
2022/04/20 02:09:25;;;;;;;1.57;0.80;;;9.40;1.00;;;;;;5096945;28;20895;-56
2022/04/20 02:11:52;;;;;;;3.00;0.90;;;9.30;1.00;;;;;;5096974;28;20836;-56
2022/04/20 02:14:19;;;;;;;1.40;0.87;;;9.20;1.00;;;;;;5096798;28;20540;-56
2022/04/20 02:16:46;;;;;;;2.23;1.00;;;9.10;1.00;;;;;;5096692;28;20576;-54
2022/04/20 02:19:13;;;;;;;2.77;1.00;;;9.10;1.00;;;;;;5096236;28;20572;-55
2022/04/20 02:21:40;;;;;;;3.13;0.90;;;9.10;1.00;;;;;;5096652;28;20833;-56
2022/04/20 02:24:06;;;;;;;1.00;0.80;;;9.10;1.00;;;;;;5096060;28;20450;-56
2022/04/20 02:26:35;;;;;;;0.90;0.80;;;9.10;1.00;;;;;;5096033;28;20534;-56
2022/04/20 02:29:02;;;;;;;1.73;0.73;;;8.90;1.00;;;;;;5096102;28;20441;-56
2022/04/20 02:31:28;;;;;;;1.87;0.90;;;8.80;1.00;;;;;;5095387;28;20894;-56
2022/04/20 02:33:55;;;;;;;1.80;0.80;;;8.90;1.00;;;;;;5095683;28;20909;-55
2022/04/20 02:36:22;;;;;;;1.80;0.80;;;9.00;1.00;;;;;;5096258;28;20450;-56
2022/04/20 02:38:50;;;;;;;1.17;0.77;;;9.10;1.00;;;;;;5096176;28;21036;-57
2022/04/20 02:41:17;;;;;;;1.30;1.00;;;9.10;1.00;;;;;;5095616;28;20548;-53
2022/04/20 02:43:45;;;;;;;1.40;0.90;;;9.20;1.00;;;;;;5095143;28;20541;-55
2022/04/20 02:46:12;;;;;;;1.67;0.90;;;9.10;1.00;;;;;;5094431;28;20449;-54
2022/04/20 02:48:40;;;;;;;1.70;1.10;;;9.20;1.00;;;;;;5094317;28;20442;-55
2022/04/20 02:51:08;;;;;;;1.10;0.87;;;9.20;1.00;;;;;;5093916;28;21068;-57
2022/04/20 02:53:35;;;;;;;5.53;0.80;;;9.10;1.00;;;;;;5093281;28;20456;-56
2022/04/20 02:56:02;;;;;;;1.97;0.80;;;9.20;1.00;;;;;;5093371;28;20453;-56
2022/04/20 02:58:29;;;;;;;1.13;0.83;;;9.10;1.00;;;;;;5094527;28;20472;-55
2022/04/20 03:00:57;;;;;;;1.80;0.90;;;8.90;1.00;;;;;;5093859;28;20552;-55
2022/04/20 03:03:24;;;;;;;1.10;0.77;;;8.80;1.00;;;;;;5095884;28;20540;-54
2022/04/20 03:05:53;;;;;;;2.33;0.90;;;8.80;1.00;;;;;;5095551;28;20493;-52
2022/04/20 03:08:20;;;;;;;1.50;0.93;;;8.70;1.00;;;;;;5095304;28;20544;-56
2022/04/20 03:10:47;;;;;;;1.30;0.80;;;8.70;1.00;;;;;;5095709;28;20489;-55
2022/04/20 03:13:15;;;;;;;1.00;0.80;;;8.70;1.00;;;;;;5096448;28;20533;-56
2022/04/20 03:15:42;;;;;;;1.10;0.90;;;8.80;1.00;;;;;;5095838;28;20488;-55
2022/04/20 03:18:10;;;;;;;3.63;0.77;;;8.80;1.00;;;;;;5096269;28;20480;-56
2022/04/20 03:20:37;;;;;;;1.10;0.70;;;8.80;1.00;;;;;;5095109;28;20797;-55
2022/04/20 03:23:05;;;;;;;1.50;0.90;;;8.80;1.00;;;;;;5094325;28;20488;-55
2022/04/20 03:25:32;;;;;;;1.00;0.80;;;8.80;1.00;;;;;;5094242;28;20880;-56
2022/04/20 03:27:59;;;;;;;2.20;1.03;;;8.80;1.00;;;;;;5094960;28;20445;-54
2022/04/20 03:30:27;;;;;;;1.40;0.90;;;8.60;1.00;;;;;;5093980;28;20544;-56
2022/04/20 03:32:54;;;;;;;1.13;0.80;;;8.60;1.00;;;;;;5094571;28;20449;-55
2022/04/20 03:35:23;;;;;;;2.13;1.37;;;8.60;1.00;;;;;;5094788;28;20458;-56
2022/04/20 03:37:50;;;;;;;1.33;1.00;;;8.50;1.00;;;;;;5093476;28;20525;-57
2022/04/20 03:40:17;;;;;;;2.20;0.80;;;8.50;1.00;;;;;;5092648;28;20781;-55
2022/04/20 03:42:44;;;;;;;1.20;0.90;;;8.50;1.00;;;;;;5093366;28;20541;-57
2022/04/20 03:45:11;;;;;;;3.97;1.00;;;8.40;1.00;;;;;;5094684;28;20492;-52
2022/04/20 03:47:38;;;;;;;1.67;0.97;;;8.30;1.00;;;;;;5097196;28;20536;-56
2022/04/20 03:50:06;;;;;;;2.00;0.87;;;8.20;1.00;;;;;;5098190;28;20446;-52
2022/04/20 03:52:34;;;;;;;3.27;0.90;;;8.10;1.00;;;;;;5098235;28;20536;-54
2022/04/20 03:55:01;;;;;;;2.97;1.53;;;8.00;1.00;;;;;;5098412;28;20901;-52
2022/04/20 03:57:28;;;;;;;15.03;8.17;;;8.00;1.00;;;;;;5099050;28;20857;-56
2022/04/20 03:59:55;;;;;;;8.20;4.90;;;8.00;1.00;;;;;;5098867;28;20503;-56
2022/04/20 04:02:22;;;;;;;1.60;1.00;;;7.90;1.00;;;;;;5099221;28;20531;-56
2022/04/20 04:04:49;;;;;;;4.43;1.00;;;7.90;1.00;;;;;;5098054;28;20485;-56
2022/04/20 04:07:16;;;;;;;2.00;0.87;;;8.00;1.00;;;;;;5097824;28;20551;-55
2022/04/20 04:09:44;;;;;;;4.83;1.10;;;7.90;1.00;;;;;;5097838;28;20437;-56
2022/04/20 04:12:11;;;;;;;2.20;0.97;;;7.80;1.00;;;;;;5098146;28;20548;-56
2022/04/20 04:14:39;;;;;;;1.10;0.90;;;7.70;1.00;;;;;;5097977;28;20905;-56
2022/04/20 04:17:06;;;;;;;1.77;1.00;;;7.70;1.00;;;;;;5098338;28;20933;-55
2022/04/20 04:19:33;;;;;;;1.17;0.80;;;7.70;1.00;;;;;;5097287;28;21026;-55
2022/04/20 04:22:01;;;;;;;1.40;1.00;;;7.60;1.00;;;;;;5098203;28;20457;-54
2022/04/20 04:24:39;;;;;;;1.37;0.90;;;7.60;13.60;;;;;;5098282;28;20456;-55
2022/04/20 04:27:09;;;;;;;1.20;0.90;;;7.60;1.00;;;;;;5112701;28;20492;-54
2022/04/20 04:29:37;;;;;;;1.50;0.90;;;7.70;1.00;;;;;;5108263;28;20765;-55
2022/04/20 04:32:05;;;;;;;1.40;1.00;;;7.90;1.00;;;;;;5099154;28;20453;-55
2022/04/20 04:34:32;;;;;;;3.67;1.00;;;8.10;1.00;;;;;;5096763;28;20473;-56
2022/04/20 04:36:59;;;;;;;1.23;1.00;;;8.00;1.00;;;;;;5102133;28;20531;-55
2022/04/20 04:39:29;;;;;;;1.37;1.10;;;8.00;1.00;;;;;;5097390;28;20485;-57
2022/04/20 04:42:00;;;;;;;2.60;0.90;;;7.90;1.00;;;;;;5097437;28;20460;-56
2022/04/20 04:44:32;;;;;;;1.20;0.80;;;7.80;1.00;;;;;;5097926;28;20453;-56
2022/04/20 04:49:43;;;;;;;2.80;1.00;;;8.20;1.00;;;;;;5080251;28;20437;-56
2022/04/20 04:52:12;;;;;;;3.73;1.00;;;8.20;1.00;;;;;;5099694;28;20548;-52
2022/04/20 04:54:40;;;;;;;1.50;0.90;;;8.20;1.00;;;;;;5097955;28;20444;-55
2022/04/20 04:57:08;;;;;;;1.40;1.10;;;8.00;1.00;;;;;;5097337;28;20507;-55
2022/04/20 04:59:37;;;;;;;1.40;0.80;;;7.80;1.00;;;;;;5116424;28;20480;-56
2022/04/20 05:02:05;;;;;;;1.17;0.80;;;7.80;1.00;;;;;;5118250;28;20548;-58
2022/04/20 05:04:32;;;;;;;1.80;0.80;;;8.00;1.00;;;;;;5117843;28;20669;-54
2022/04/20 05:06:59;;;;;;;1.63;0.80;;;8.10;1.00;;;;;;5116515;28;20814;-54
2022/04/20 05:09:26;;;;;;;2.60;1.00;;;8.10;1.00;;;;;;5117015;28;20515;-57
2022/04/20 05:11:54;;;;;;;1.20;0.83;;;8.00;1.00;;;;;;5117959;28;20969;-57
2022/04/20 05:14:21;;;;;;;1.50;0.90;;;7.70;1.00;;;;;;5117573;28;20880;-57
2022/04/20 05:16:50;;;;;;;2.17;0.97;;;7.50;1.00;;;;;;5117508;28;20985;-57
2022/04/20 05:19:17;;;;;;;1.50;0.80;;;7.60;1.00;;;;;;5117489;28;20463;-57
2022/04/20 05:21:44;;;;;;;2.60;1.00;;;7.70;1.00;;;;;;5118013;28;20487;-57
2022/04/20 05:24:11;;;;;;;1.70;0.80;;;7.80;1.00;;;;;;5117470;28;20451;-56
2022/04/20 05:26:38;;;;;;;1.40;0.80;;;7.90;1.00;;;;;;5117822;28;20456;-56
2022/04/20 05:29:06;;;;;;;1.27;0.73;;;8.10;1.00;;;;;;5109127;28;20506;-57
2022/04/20 05:31:33;;;;;;;1.90;0.77;;;8.20;1.00;;;;;;5116887;28;20493;-57
2022/04/20 05:34:02;;;;;;;2.50;0.83;;;8.50;1.00;;;;;;5115927;28;20448;-55
2022/04/20 05:41:39;;;;;;;3.37;1.50;;;8.50;1.00;;;;;;5117065;28;20456;-55
2022/04/20 05:42:01;;;;;;;1.20;0.73;;;8.40;1.00;;;;;;5101667;28;20480;-52
2022/04/20 05:44:28;;;;;;;1.30;0.90;;;8.70;1.00;;;;;;5097342;28;20452;-56
2022/04/20 05:46:55;;;;;;;1.00;0.80;;;8.30;1.00;;;;;;5095527;28;20449;-55
2022/04/20 05:49:26;;;;;;;1.50;0.80;;;8.20;1.00;;;;;;5095714;28;20456;-54
2022/04/20 05:51:53;;;;;;;1.70;0.80;;;8.30;1.00;;;;;;5094694;28;20484;-56
2022/04/20 05:54:19;;;;;;;1.20;0.90;;;8.40;1.00;;;;;;5095633;28;20484;-52
2022/04/20 05:56:46;;;;;;;0.97;0.80;;;8.30;1.00;;;;;;5098319;28;20454;-56
2022/04/20 05:59:13;;;;;;;1.70;0.80;;;8.50;1.00;;;;;;5093842;28;20876;-53
2022/04/20 06:01:40;;;;;;;1.57;0.97;;;8.60;1.00;;;;;;5100172;28;20580;-56
2022/04/20 06:04:07;;;;;;;2.13;0.87;;;8.50;1.00;;;;;;5094939;28;20449;-56
2022/04/20 06:06:36;;;;;;;1.53;0.80;;;8.60;1.00;;;;;;5093917;28;20936;-56
2022/04/20 06:09:05;;;;;;;1.10;0.80;;;8.90;1.00;;;;;;5096708;28;20842;-55
2022/04/20 06:11:32;;;;;;;1.07;0.73;;;9.00;1.00;;;;;;5096163;28;20485;-56
2022/04/20 06:13:59;;;;;;;1.13;0.87;;;8.80;1.00;;;;;;5093970;28;20453;-57
2022/04/20 06:16:25;;;;;;;1.27;0.87;;;8.90;1.00;;;;;;5094113;28;20622;-55
2022/04/20 06:18:53;;;;;;;1.10;0.80;;;8.80;1.00;;;;;;5093296;28;20499;-52
2022/04/20 06:21:19;;;;;;;1.00;0.70;;;8.90;1.00;;;;;;5092818;28;20943;-54
2022/04/20 06:23:48;;;;;;;2.07;0.90;;;9.00;1.00;;;;;;5099524;28;20452;-55
2022/04/20 06:26:17;;;;;;;4.70;0.90;;;9.10;1.00;;;;;;5098477;28;20453;-54
2022/04/20 06:28:44;;;;;;;2.33;0.80;;;9.20;1.00;;;;;;5103877;28;20465;-53
2022/04/20 06:31:11;;;;;;;1.87;0.90;;;9.20;1.00;;;;;;5093772;28;20516;-55
2022/04/20 06:33:38;;;;;;;1.20;0.80;;;9.20;1.00;;;;;;5094287;28;20499;-56
2022/04/20 06:36:05;;;;;;;2.20;1.00;;;9.20;1.00;;;;;;5093105;28;20579;-53
2022/04/20 06:38:32;;;;;;;1.47;0.70;;;9.20;1.00;;;;;;5097224;28;20561;-55
2022/04/20 06:41:00;;;;;;;1.10;0.80;;;9.20;1.00;;;;;;5093034;28;20538;-54
2022/04/20 06:43:27;;;;;;;1.10;0.80;;;9.00;1.00;;;;;;5093912;28;20468;-55
2022/04/20 06:45:55;;;;;;;0.80;0.63;;;8.90;1.00;;;;;;5094496;28;20450;-55
2022/04/20 06:48:22;;;;;;;1.27;0.80;;;9.00;1.00;;;;;;5096070;28;20740;-57
2022/04/20 06:50:49;;;;;;;3.10;0.80;;;9.10;1.00;;;;;;5096526;28;20449;-60
2022/04/20 06:58:47;;;;;;;0.83;0.60;;;9.20;1.00;;;;;;5096873;28;20671;-58
2022/04/20 07:01:15;;;;;;;1.10;0.70;;;9.20;1.00;;;;;;5092503;28;20493;-52
2022/04/20 07:03:42;;;;;;;1.30;0.90;;;9.30;1.00;;;;;;5091872;28;20469;-56
2022/04/20 07:06:08;;;;;;;1.63;0.90;;;9.50;1.00;;;;;;5092827;28;20876;-56
2022/04/20 07:08:36;;;;;;;8.20;3.85;;;9.70;1.00;;;;;;5092923;28;20453;-56
2022/04/20 07:11:05;;;;;;;1.43;0.80;;;9.80;1.00;;;;;;5100236;28;20756;-54
2022/04/20 07:13:32;;;;;;;1.40;0.70;;;9.40;1.00;;;;;;5101028;28;21113;-53
2022/04/20 07:15:59;;;;;;;1.43;0.80;;;9.40;1.00;;;;;;5092189;28;20563;-58
2022/04/20 07:18:26;;;;;;;1.30;0.70;;;9.30;1.00;;;;;;5093700;28;20979;-61
2022/04/20 07:20:53;;;;;;;1.00;0.70;;;9.40;1.00;;;;;;5096427;28;20485;-55
2022/04/20 07:23:20;;;;;;;1.27;0.80;;;9.60;1.00;;;;;;5098658;28;20445;-57
2022/04/20 07:25:47;;;;;;;1.20;0.70;;;9.60;1.00;;;;;;5098354;28;20453;-54
2022/04/20 07:28:15;;;;;;;1.30;0.77;;;9.70;1.00;;;;;;5098953;28;20461;-57
2022/04/20 07:30:42;;;;;;;1.50;0.70;;;9.80;1.00;;;;;;5097863;28;20489;-56
2022/04/20 07:33:09;;;;;;;1.10;0.70;;;9.90;1.00;;;;;;5098795;28;20499;-57
2022/04/20 07:35:36;;;;;;;0.97;0.60;;;10.10;1.00;;;;;;5096930;28;20846;-57
2022/04/20 07:38:03;;;;;;;0.70;0.60;;;10.20;1.00;;;;;;5098210;28;20484;-57
2022/04/20 07:40:31;;;;;;;1.00;0.70;;;10.30;1.00;;;;;;5095739;28;20479;-56
2022/04/20 07:42:58;;;;;;;1.63;0.80;;;10.20;1.00;;;;;;5097950;28;20448;-55
2022/04/20 07:45:27;;;;;;;3.90;0.70;;;10.20;1.00;;;;;;5097769;28;20492;-58
2022/04/20 07:47:55;;;;;;;0.90;0.70;;;10.30;1.00;;;;;;5103936;28;20880;-56
2022/04/20 07:50:23;;;;;;;1.30;0.70;;;10.40;1.00;;;;;;5097472;28;20457;-56
2022/04/20 07:52:53;;;;;;;1.00;0.70;;;10.50;1.00;;;;;;5103393;28;20543;-56
2022/04/20 07:55:22;;;;;;;1.50;0.93;;;10.40;1.00;;;;;;5097681;28;20488;-56
2022/04/20 07:57:50;;;;;;;0.97;0.73;;;10.50;1.00;;;;;;5095106;28;20468;-55
2022/04/20 08:00:18;;;;;;;1.27;0.77;;;10.70;1.00;;;;;;5096049;28;20558;-57
2022/04/20 08:02:47;;;;;;;1.13;0.60;;;10.50;99.90;;;;;;5100318;28;21071;-57
2022/04/20 08:05:16;;;;;;;3.23;0.90;;;10.70;1.00;;;;;;5098522;28;20780;-57
2022/04/20 08:07:44;;;;;;;1.20;0.63;;;10.80;99.90;;;;;;5108314;28;20904;-57
2022/04/20 08:10:12;;;;;;;1.40;0.70;;;10.80;99.90;;;;;;5107931;28;20532;-56
2022/04/20 08:12:40;;;;;;;1.17;0.67;;;10.80;99.90;;;;;;5095877;28;20968;-55
2022/04/20 08:15:10;;;;;;;1.30;0.80;;;10.80;99.90;;;;;;5095084;28;20962;-58
2022/04/20 08:17:37;;;;;;;0.90;0.60;;;11.00;99.90;;;;;;5109449;28;20444;-58
2022/04/20 08:20:07;;;;;;;2.00;0.80;;;11.20;99.90;;;;;;5095334;28;20485;-58
2022/04/20 08:22:40;;;;;;;0.90;0.70;;;11.30;99.90;;;;;;5110939;28;20481;-58
2022/04/20 08:25:08;;;;;;;1.17;0.80;;;11.40;99.90;;;;;;5105074;28;20759;-57
2022/04/20 08:27:34;;;;;;;2.17;0.80;;;11.40;99.90;;;;;;5099091;28;20476;-53
2022/04/20 08:30:01;;;;;;;1.10;0.80;;;11.30;99.90;;;;;;5095870;28;20578;-57
2022/04/20 08:32:29;;;;;;;1.30;0.80;;;11.20;99.90;;;;;;5110379;28;20502;-57
2022/04/20 08:34:58;;;;;;;2.10;0.80;;;11.30;99.90;;;;;;5096767;28;20441;-58
2022/04/20 08:37:27;;;;;;;1.07;0.73;;;11.50;99.90;;;;;;5108010;28;20445;-56
2022/04/20 08:39:53;;;;;;;1.60;0.93;;;11.50;99.90;;;;;;5116136;28;20492;-58
2022/04/20 08:42:22;;;;;;;2.07;1.00;;;11.50;99.90;;;;;;5115734;28;20516;-57
2022/04/20 08:44:50;;;;;;;1.30;0.70;;;11.40;99.90;;;;;;5100430;28;20639;-58
2022/04/20 08:47:22;;;;;;;1.53;0.80;;;11.40;99.90;;;;;;5103105;28;20472;-58
2022/04/20 08:49:50;;;;;;;1.17;0.87;;;11.60;99.90;;;;;;5093087;28;20482;-58
2022/04/20 08:52:41;;;;;;;0.97;0.73;;;11.60;99.90;;;;;;5105868;28;20453;-57
2022/04/20 08:55:12;;;;;;;1.87;0.90;;;11.70;99.90;;;;;;5098883;28;20446;-58
2022/04/20 08:57:40;;;;;;;1.70;0.80;;;11.80;99.90;;;;;;5103335;28;20647;-56
2022/04/20 09:00:10;;;;;;;13.17;1.10;;;11.80;99.90;;;;;;5099854;28;20505;-56
2022/04/20 09:02:38;;;;;;;4.07;0.80;;;11.80;99.90;;;;;;5115476;28;20476;-56
2022/04/20 09:05:06;;;;;;;30.07;2.50;;;12.00;99.90;;;;;;5106923;28;20528;-58
2022/04/20 09:07:33;;;;;;;5.50;0.80;;;12.10;99.90;;;;;;5109967;28;20446;-58
2022/04/20 09:10:01;;;;;;;1.90;0.70;;;12.10;99.90;;;;;;5097576;28;20506;-58
2022/04/20 09:12:30;;;;;;;1.50;1.00;;;12.20;99.90;;;;;;5097254;28;20753;-58
2022/04/20 09:14:59;;;;;;;1.90;1.20;;;12.30;99.90;;;;;;5103048;28;20526;-58
2022/04/20 09:17:26;;;;;;;4.23;0.70;;;12.40;99.90;;;;;;5097046;28;20503;-58
2022/04/20 09:19:55;;;;;;;0.87;0.60;;;12.50;99.90;;;;;;5099050;28;20933;-57
2022/04/20 09:22:23;;;;;;;1.63;0.70;;;12.60;99.90;;;;;;5103488;28;20577;-58
2022/04/20 09:24:58;;;;;;;3.77;0.70;;;13.00;99.90;;;;;;5103666;28;20980;-58
2022/04/20 09:27:26;;;;;;;1.23;0.63;;;13.10;99.90;;;;;;5093187;28;20743;-58
2022/04/20 09:29:56;;;;;;;1.00;0.67;;;13.10;99.90;;;;;;5093473;28;20920;-58
2022/04/20 09:32:37;;;;;;;1.40;0.77;;;13.20;99.90;;;;;;5094527;28;20446;-58
2022/04/20 09:35:06;;;;;;;3.03;0.70;;;13.30;99.90;;;;;;5093795;28;20441;-60
2022/04/20 09:37:34;;;;;;;2.40;0.80;;;13.40;99.90;;;;;;5095674;28;20496;-58
2022/04/20 09:40:04;;;;;;;1.03;0.63;;;13.50;99.90;;;;;;5096603;28;20448;-58
2022/04/20 09:42:31;;;;;;;0.83;0.60;;;13.30;99.90;;;;;;5093376;28;20789;-57
2022/04/20 09:45:02;;;;;;;0.70;0.50;;;13.20;99.90;;;;;;5092940;28;20929;-59
2022/04/20 09:50:21;;;;;;;1.53;0.60;;;13.50;99.90;;;;;;5094077;28;20514;-58
2022/04/20 09:52:49;;;;;;;1.00;0.57;;;13.60;99.90;;;;;;5100330;28;20939;-55
2022/04/20 09:55:18;;;;;;;0.83;0.60;;;13.90;99.90;;;;;;5101664;28;20506;-57
2022/04/20 09:57:45;;;;;;;1.00;0.60;;;14.10;99.90;;;;;;5111317;28;20449;-58
2022/04/20 10:00:15;;;;;;;1.40;0.57;;;13.90;99.90;;;;;;5097817;28;20532;-55
2022/04/20 10:02:47;;;;;;;0.80;0.60;;;14.10;99.90;;;;;;5097939;28;20474;-53
2022/04/20 10:05:14;;;;;;;0.90;0.60;;;14.10;99.90;;;;;;5105129;28;20446;-50
2022/04/20 10:07:41;;;;;;;0.90;0.60;;;14.40;99.90;;;;;;5095670;28;20549;-54
2022/04/20 10:10:10;;;;;;;0.90;0.60;;;14.80;99.90;;;;;;5094043;28;20441;-58
2022/04/20 10:12:39;;;;;;;1.20;0.70;;;15.10;99.90;;;;;;5099864;28;20442;-60
2022/04/20 10:17:56;;;;;;;0.90;0.63;;;15.20;99.90;;;;;;5100412;28;20448;-55
2022/04/20 10:20:25;;;;;;;1.13;0.53;;;15.40;99.90;;;;;;5099280;28;20464;-57
2022/04/20 10:22:52;;;;;;;0.80;0.60;;;15.60;99.90;;;;;;5098767;28;20516;-56
2022/04/20 10:25:19;;;;;;;0.90;0.63;;;15.90;99.90;;;;;;5091664;28;20564;-55
2022/04/20 10:28:09;;;;;;;1.00;0.60;;;16.10;99.90;;;;;;5097235;28;20892;-53
2022/04/20 10:30:56;;;;;;;2.50;1.00;;;15.60;99.90;;;;;;5095752;28;20442;-56
2022/04/20 10:33:25;;;;;;;1.83;0.80;;;16.00;99.90;;;;;;5109033;28;20544;-54
2022/04/20 10:35:56;;;;;;;1.70;1.00;;;16.40;99.90;;;;;;5105669;28;20450;-57
2022/04/20 10:38:23;;;;;;;0.80;0.60;;;16.70;99.90;;;;;;5100702;28;20441;-55
2022/04/20 10:41:05;;;;;;;0.80;0.70;;;16.50;99.90;;;;;;5096125;28;20445;-56
2022/04/20 10:43:34;;;;;;;0.77;0.50;;;16.70;99.90;;;;;;5097923;28;20488;-57
2022/04/20 10:46:14;;;;;;;0.87;0.60;;;16.70;99.90;;;;;;5102949;28;20483;-57
2022/04/20 10:48:55;;;;;;;0.77;0.53;;;16.90;99.90;;;;;;5101046;28;20926;-54
2022/04/20 10:51:24;;;;;;;0.80;0.50;;;16.90;99.90;;;;;;5101971;28;20983;-57
2022/04/20 10:53:52;;;;;;;0.93;0.67;;;16.50;99.90;;;;;;5097180;28;20441;-57
2022/04/20 10:56:20;;;;;;;0.90;0.60;;;16.70;99.90;;;;;;5096168;28;21034;-56
2022/04/20 10:59:08;;;;;;;1.03;0.70;;;17.00;99.90;;;;;;5104936;28;20952;-57
2022/04/20 11:02:07;;;;;;;0.97;0.70;;;17.40;99.90;;;;;;5091198;28;20478;-58
2022/04/20 11:04:39;;;;;;;1.93;0.60;;;17.40;99.90;;;;;;5098181;28;20775;-58
2022/04/20 11:07:27;;;;;;;0.83;0.63;;;17.00;99.90;;;;;;5094039;28;20560;-56
2022/04/20 11:10:00;;;;;;;0.90;0.60;;;17.00;99.90;;;;;;5104536;28;20770;-58
2022/04/20 11:18:39;;;;;;;0.87;0.57;;;17.90;99.90;;;;;;5093284;28;20423;-57
2022/04/20 11:21:23;;;;;;;0.83;0.57;;;18.40;99.90;;;;;;5092414;28;20510;-57
2022/04/20 11:24:01;;;;;;;0.80;0.60;;;18.20;99.90;;;;;;5104180;28;20440;-57
2022/04/20 11:26:30;;;;;;;1.43;0.57;;;18.00;99.90;;;;;;5096244;28;20453;-57
2022/04/20 11:29:01;;;;;;;0.90;0.60;;;18.10;99.90;;;;;;5097701;28;20459;-57
2022/04/20 11:31:36;;;;;;;1.60;0.60;;;18.20;99.90;;;;;;5105147;28;20449;-56
2022/04/20 11:34:03;;;;;;;0.77;0.60;;;18.00;99.90;;;;;;5094491;28;20795;-56
2022/04/20 11:36:31;;;;;;;1.20;0.70;;;18.20;99.90;;;;;;5093624;28;20577;-58
2022/04/20 11:38:58;;;;;;;1.27;0.60;;;18.30;99.90;;;;;;5095105;28;20478;-58
2022/04/20 11:41:25;;;;;;;1.27;0.50;;;18.70;99.90;;;;;;5098930;28;20476;-56
2022/04/20 11:43:52;;;;;;;0.80;0.60;;;18.30;99.90;;;;;;5096395;28;20881;-57
2022/04/20 11:46:20;;;;;;;0.87;0.50;;;18.00;99.90;;;;;;5110121;28;20441;-57
2022/04/20 11:48:51;;;;;;;0.83;0.70;;;18.30;99.90;;;;;;5105324;28;20444;-56
2022/04/20 11:51:23;;;;;;;1.40;0.70;;;18.40;99.90;;;;;;5110877;28;20748;-58
2022/04/20 11:53:52;;;;;;;0.70;0.57;;;18.50;99.90;;;;;;5104020;28;20924;-58
2022/04/20 11:56:35;;;;;;;1.53;0.60;;;18.70;99.90;;;;;;5103373;28;20529;-58
2022/04/20 11:59:03;;;;;;;1.13;0.60;;;18.80;99.90;;;;;;5096748;28;20440;-58
2022/04/20 12:01:33;;;;;;;0.90;0.53;;;19.00;99.90;;;;;;5098188;28;20564;-58
2022/04/20 12:04:02;;;;;;;1.73;0.60;;;19.00;99.90;;;;;;5110702;28;20445;-58
2022/04/20 12:06:30;;;;;;;0.70;0.47;;;19.30;99.90;;;;;;5105555;28;20457;-58
2022/04/20 12:08:59;;;;;;;1.13;0.60;;;19.30;99.90;;;;;;5103731;28;20438;-58
2022/04/20 12:11:26;;;;;;;0.90;0.60;;;18.70;99.90;;;;;;5104844;28;20825;-57
2022/04/20 12:13:56;;;;;;;2.87;1.13;;;18.30;99.90;;;;;;5115804;28;20739;-56
2022/04/20 12:16:24;;;;;;;0.90;0.63;;;18.30;99.90;;;;;;5103028;28;20485;-58
2022/04/20 12:18:52;;;;;;;0.70;0.53;;;18.10;99.90;;;;;;5117616;28;20505;-59
2022/04/20 12:21:41;;;;;;;1.10;0.70;;;18.30;99.90;;;;;;5096610;28;20668;-58
2022/04/20 12:24:11;;;;;;;0.80;0.57;;;18.60;99.90;;;;;;5095938;28;20473;-58
2022/04/20 12:26:42;;;;;;;0.90;0.60;;;18.70;99.90;;;;;;5097701;28;20454;-58
2022/04/20 12:29:11;;;;;;;0.80;0.60;;;18.70;99.90;;;;;;5101880;28;20453;-58
2022/04/20 12:31:43;;;;;;;1.17;0.60;;;18.80;99.90;;;;;;5097010;28;20777;-58
2022/04/20 12:34:11;;;;;;;0.70;0.60;;;18.80;99.90;;;;;;5098108;28;20489;-58
2022/04/20 12:36:52;;;;;;;2.40;0.60;;;19.10;99.90;;;;;;5096506;28;20548;-59
2022/04/20 12:39:27;;;;;;;3.03;0.70;;;19.60;99.90;;;;;;5110825;28;20445;-59
2022/04/20 12:41:56;;;;;;;0.80;0.60;;;19.50;99.90;;;;;;5115983;28;20601;-58
2022/04/20 12:44:48;;;;;;;0.90;0.60;;;19.30;99.90;;;;;;5116591;28;20536;-58
2022/04/20 12:47:38;;;;;;;2.10;0.60;;;19.40;99.90;;;;;;5116246;28;20448;-59
2022/04/20 12:50:19;;;;;;;0.90;0.60;;;19.20;99.90;;;;;;5117115;28;20482;-59
2022/04/20 12:52:52;;;;;;;0.77;0.50;;;18.70;99.90;;;;;;5106325;28;20748;-59
2022/04/20 12:55:20;;;;;;;0.77;0.50;;;18.70;99.90;;;;;;5095862;28;20492;-59
2022/04/20 13:03:35;;;;;;;0.77;0.50;;;18.90;99.90;;;;;;5100303;28;20456;-59
2022/04/20 13:06:02;;;;;;;1.33;0.60;;;18.80;99.90;;;;;;5117163;28;20747;-59
2022/04/20 13:08:30;;;;;;;0.90;0.60;;;18.90;99.90;;;;;;5116595;28;20497;-58
2022/04/20 13:10:59;;;;;;;1.17;0.60;;;18.60;99.90;;;;;;5116853;28;20532;-59
2022/04/20 13:13:26;;;;;;;0.70;0.50;;;18.90;99.90;;;;;;5115697;28;20437;-59
2022/04/20 13:15:54;;;;;;;1.60;0.60;;;18.90;99.90;;;;;;5114336;28;20727;-59
2022/04/20 13:18:22;;;;;;;0.80;0.60;;;18.70;99.90;;;;;;5111456;28;20472;-58
2022/04/20 13:20:49;;;;;;;1.10;0.70;;;18.60;99.90;;;;;;5098717;28;20751;-59
2022/04/20 13:23:16;;;;;;;1.20;0.60;;;18.80;99.90;;;;;;5094036;28;20540;-59
2022/04/20 13:28:29;;;;;;;1.07;0.67;;;19.00;99.90;;;;;;5093630;28;20515;-59
2022/04/20 13:30:57;;;;;;;0.80;0.50;;;18.20;99.90;;;;;;5094464;28;20940;-60
2022/04/20 13:33:24;;;;;;;2.77;0.53;;;18.30;99.90;;;;;;5095548;28;20756;-59
2022/04/20 13:35:53;;;;;;;0.70;0.60;;;18.60;99.90;;;;;;5092604;28;20831;-58
2022/04/20 13:38:21;;;;;;;1.00;0.70;;;18.40;99.90;;;;;;5094313;28;20503;-60
2022/04/20 13:40:48;;;;;;;0.83;0.50;;;18.60;99.90;;;;;;5095437;28;20456;-59